Time;durP1;ratioP1;P1;durP2;ratioP2;P2;SDS_P1;SDS_P2;PMS_P1;PMS_P2;Temp;Humidity;BMP_temperature;BMP_pressure;BME280_temperature;BME280_humidity;BME280_pressure;Samples;Min_cycle;Max_cycle;Signal;HPM_P1;HPM_P2
2022/06/29 00:01:47;;;;;;;2.92;2.40;;;24.30;87.00;;;;;;4994850;28;20029;-69
2022/06/29 00:04:12;;;;;;;4.00;2.85;;;24.30;88.70;;;;;;4994655;28;20117;-72
2022/06/29 00:06:38;;;;;;;2.80;2.30;;;24.30;89.10;;;;;;4994805;28;20026;-68
2022/06/29 00:09:04;;;;;;;2.78;2.58;;;24.20;89.80;;;;;;4993299;28;20065;-67
2022/06/29 00:11:30;;;;;;;2.72;2.53;;;24.20;90.00;;;;;;4994483;28;20046;-67
2022/06/29 00:13:55;;;;;;;3.30;2.47;;;24.30;90.10;;;;;;4994373;28;20038;-69
2022/06/29 00:16:21;;;;;;;2.50;2.30;;;24.30;90.30;;;;;;4994607;28;20029;-69
2022/06/29 00:18:47;;;;;;;2.55;2.35;;;24.30;90.50;;;;;;4994402;28;20030;-71
2022/06/29 00:21:13;;;;;;;2.65;2.33;;;24.30;90.60;;;;;;4994528;28;20404;-67
2022/06/29 00:23:39;;;;;;;5.07;2.33;;;24.30;90.60;;;;;;4994550;28;20038;-68
2022/06/29 00:26:04;;;;;;;3.42;2.40;;;24.30;90.60;;;;;;4994342;28;20026;-69
2022/06/29 00:28:30;;;;;;;3.25;2.03;;;24.30;90.70;;;;;;4994331;28;20022;-69
2022/06/29 00:30:56;;;;;;;2.63;2.10;;;24.40;90.60;;;;;;4994298;28;20432;-70
2022/06/29 00:33:21;;;;;;;2.50;2.30;;;24.40;90.40;;;;;;4994263;28;20080;-67
2022/06/29 00:35:47;;;;;;;2.25;2.05;;;24.50;90.60;;;;;;4994256;28;20026;-70
2022/06/29 00:38:13;;;;;;;2.45;2.22;;;24.40;90.50;;;;;;4994134;28;20060;-68
2022/06/29 00:40:39;;;;;;;2.60;2.40;;;24.40;90.60;;;;;;4994199;28;20080;-71
2022/06/29 00:43:05;;;;;;;3.15;2.47;;;24.40;90.70;;;;;;4993945;28;20030;-68
2022/06/29 00:45:31;;;;;;;2.53;1.90;;;24.30;90.80;;;;;;4992838;28;20498;-69
2022/06/29 00:47:56;;;;;;;1.83;1.73;;;24.30;91.10;;;;;;4994282;28;20026;-71
2022/06/29 00:50:24;;;;;;;2.40;1.65;;;24.40;90.70;;;;;;4993974;28;20029;-70
2022/06/29 00:52:50;;;;;;;2.17;1.80;;;24.50;90.30;;;;;;4993828;28;20022;-71
2022/06/29 00:55:22;;;;;;;2.33;1.48;;;24.60;90.30;;;;;;4992828;28;20022;-69
2022/06/29 00:57:49;;;;;;;2.22;1.60;;;24.70;90.10;;;;;;4993892;28;20137;-71
2022/06/29 01:00:15;;;;;;;2.28;1.50;;;24.70;90.00;;;;;;4992757;28;20484;-69
2022/06/29 01:02:41;;;;;;;1.80;1.58;;;24.70;89.50;;;;;;4993781;28;20141;-71
2022/06/29 01:05:09;;;;;;;2.05;1.85;;;24.70;89.20;;;;;;4992653;28;20548;-68
2022/06/29 01:07:35;;;;;;;2.20;1.88;;;24.70;89.20;;;;;;4993731;28;20049;-70
2022/06/29 01:10:02;;;;;;;1.73;1.63;;;24.70;89.70;;;;;;4994730;28;20070;-71
2022/06/29 01:12:28;;;;;;;2.30;2.05;;;24.70;89.70;;;;;;4997685;28;20046;-71
2022/06/29 01:14:53;;;;;;;1.70;1.60;;;24.70;89.60;;;;;;4997853;28;20037;-67
2022/06/29 01:17:21;;;;;;;1.70;1.60;;;24.70;90.00;;;;;;4997983;28;20468;-70
2022/06/29 01:19:46;;;;;;;2.25;1.48;;;24.60;90.10;;;;;;4996538;28;20109;-70
2022/06/29 01:22:18;;;;;;;1.52;1.42;;;24.60;90.00;;;;;;4997489;28;20101;-68
2022/06/29 01:24:45;;;;;;;1.88;1.58;;;24.60;90.00;;;;;;4996418;28;20026;-71
2022/06/29 01:27:13;;;;;;;2.17;1.48;;;24.60;90.10;;;;;;4997616;28;20384;-68
2022/06/29 01:29:39;;;;;;;2.38;1.50;;;24.60;90.30;;;;;;4997908;28;20420;-67
2022/06/29 01:32:06;;;;;;;2.00;1.23;;;24.50;90.30;;;;;;4997909;28;20022;-70
2022/06/29 01:34:32;;;;;;;1.73;1.40;;;24.50;90.50;;;;;;4996152;28;20026;-71
2022/06/29 01:36:59;;;;;;;1.52;1.42;;;24.50;90.50;;;;;;4997438;28;20032;-70
2022/06/29 01:39:25;;;;;;;1.83;1.67;;;24.40;90.40;;;;;;4997500;28;20436;-67
2022/06/29 01:41:51;;;;;;;1.70;1.60;;;24.40;90.60;;;;;;4997356;28;20065;-69
2022/06/29 01:44:17;;;;;;;1.90;1.70;;;24.40;90.50;;;;;;4997267;28;20488;-70
2022/06/29 01:46:43;;;;;;;2.00;1.52;;;24.40;90.70;;;;;;4997318;28;20029;-69
2022/06/29 01:49:08;;;;;;;1.65;1.40;;;24.40;90.80;;;;;;4997281;28;20440;-66
2022/06/29 01:51:34;;;;;;;1.30;1.20;;;24.40;90.80;;;;;;4996882;28;20503;-69
2022/06/29 01:54:00;;;;;;;1.85;1.50;;;24.30;90.70;;;;;;4997245;28;20026;-68
2022/06/29 01:56:26;;;;;;;1.40;1.30;;;24.30;90.80;;;;;;4997221;28;20046;-69
2022/06/29 01:58:51;;;;;;;1.70;1.35;;;24.30;91.10;;;;;;4997045;28;20097;-69
2022/06/29 02:01:17;;;;;;;1.65;1.40;;;24.30;90.90;;;;;;4995792;28;20045;-67
2022/06/29 02:03:44;;;;;;;1.80;1.60;;;24.30;91.00;;;;;;4996935;28;20507;-67
2022/06/29 02:06:10;;;;;;;2.15;1.50;;;24.30;91.10;;;;;;4996763;28;20109;-70
2022/06/29 02:08:36;;;;;;;1.83;1.50;;;24.20;91.40;;;;;;4997133;28;20441;-66
2022/06/29 02:11:02;;;;;;;1.73;1.63;;;24.10;91.50;;;;;;4997180;28;20377;-69
2022/06/29 02:13:28;;;;;;;1.40;1.30;;;24.10;92.00;;;;;;4996531;28;20038;-68
2022/06/29 02:15:53;;;;;;;1.60;1.50;;;24.00;92.00;;;;;;4997108;28;20026;-68
2022/06/29 02:18:20;;;;;;;1.63;1.52;;;24.00;91.70;;;;;;4995568;28;20022;-68
2022/06/29 02:20:46;;;;;;;2.13;1.65;;;24.00;91.50;;;;;;4996022;28;20023;-68
2022/06/29 02:23:12;;;;;;;2.10;1.55;;;24.10;91.60;;;;;;4996565;28;20153;-70
2022/06/29 02:25:37;;;;;;;1.80;1.70;;;24.00;91.80;;;;;;4997193;28;20121;-67
2022/06/29 02:28:04;;;;;;;1.42;1.30;;;24.00;91.80;;;;;;4996640;28;20492;-68
2022/06/29 02:35:57;;;;;;;1.45;1.35;;;24.10;91.50;;;;;;4996425;28;20511;-71
2022/06/29 02:38:23;;;;;;;1.50;1.40;;;24.10;91.60;;;;;;4995027;28;20050;-70
2022/06/29 02:40:49;;;;;;;2.13;1.42;;;24.00;91.80;;;;;;4996247;28;20026;-67
2022/06/29 02:43:14;;;;;;;1.50;1.40;;;24.00;92.00;;;;;;4996393;28;20113;-69
2022/06/29 02:45:41;;;;;;;1.63;1.30;;;24.00;91.80;;;;;;4996131;28;20136;-68
2022/06/29 02:48:07;;;;;;;1.30;1.20;;;24.00;92.00;;;;;;4996027;28;20022;-68
2022/06/29 02:50:32;;;;;;;1.20;1.10;;;24.00;91.90;;;;;;4996133;28;20072;-67
2022/06/29 02:52:58;;;;;;;2.13;1.35;;;24.00;91.60;;;;;;4996466;28;20097;-67
2022/06/29 02:55:24;;;;;;;2.17;1.48;;;24.00;91.70;;;;;;4996044;28;20026;-68
2022/06/29 02:57:50;;;;;;;1.30;1.20;;;24.00;92.00;;;;;;4995971;28;20029;-70
2022/06/29 03:00:15;;;;;;;1.58;1.48;;;23.90;92.10;;;;;;4996045;28;20523;-70
2022/06/29 03:02:41;;;;;;;1.50;1.40;;;23.90;92.10;;;;;;4995741;28;20396;-69
2022/06/29 03:05:08;;;;;;;2.78;1.70;;;23.90;92.30;;;;;;4995836;28;20089;-70
2022/06/29 03:07:33;;;;;;;2.20;2.00;;;23.80;92.60;;;;;;4996055;28;20023;-67
2022/06/29 03:09:59;;;;;;;1.73;1.60;;;23.70;93.30;;;;;;4995854;28;20057;-71
2022/06/29 03:12:25;;;;;;;1.83;1.63;;;23.50;93.70;;;;;;4995644;28;20497;-68
2022/06/29 03:14:50;;;;;;;1.63;1.52;;;23.50;93.80;;;;;;4995814;28;20088;-68
2022/06/29 03:17:16;;;;;;;2.08;1.92;;;23.50;93.70;;;;;;4995497;28;20058;-67
2022/06/29 03:19:42;;;;;;;1.90;1.80;;;23.50;93.70;;;;;;4995457;28;20113;-71
2022/06/29 03:22:08;;;;;;;1.77;1.67;;;23.50;94.00;;;;;;4995444;28;20049;-69
2022/06/29 03:24:34;;;;;;;2.63;2.00;;;23.50;94.30;;;;;;4995604;28;20030;-67
2022/06/29 03:26:59;;;;;;;2.67;1.50;;;23.40;94.60;;;;;;4994163;28;20018;-69
2022/06/29 03:29:25;;;;;;;2.08;1.67;;;23.40;95.00;;;;;;4995344;28;20050;-70
2022/06/29 03:31:51;;;;;;;1.95;1.73;;;23.40;95.20;;;;;;4995011;28;20119;-67
2022/06/29 03:34:17;;;;;;;2.92;1.50;;;23.30;95.30;;;;;;4994590;28;20172;-69
2022/06/29 03:36:42;;;;;;;2.55;2.30;;;23.30;95.40;;;;;;4995200;28;20488;-70
2022/06/29 03:39:08;;;;;;;3.63;2.20;;;23.40;95.60;;;;;;4995283;28;20022;-70
2022/06/29 03:41:34;;;;;;;3.05;2.60;;;23.20;96.10;;;;;;4995214;28;20515;-68
2022/06/29 03:44:00;;;;;;;2.55;2.35;;;23.10;96.70;;;;;;4994995;28;20034;-69
2022/06/29 03:46:25;;;;;;;2.63;2.20;;;23.10;97.00;;;;;;4995106;28;20027;-70
2022/06/29 03:48:51;;;;;;;3.20;2.30;;;23.10;97.10;;;;;;4995179;28;20054;-67
2022/06/29 03:51:17;;;;;;;2.17;2.08;;;23.10;97.20;;;;;;4993750;28;20117;-67
2022/06/29 03:53:42;;;;;;;2.00;1.90;;;23.10;97.20;;;;;;4995035;28;20073;-67
2022/06/29 03:56:08;;;;;;;3.25;2.08;;;23.20;97.20;;;;;;4993636;28;20026;-71
2022/06/29 03:58:34;;;;;;;2.95;1.95;;;23.30;97.00;;;;;;4994820;28;20023;-71
2022/06/29 04:00:59;;;;;;;4.35;2.55;;;23.30;97.10;;;;;;4993270;28;20384;-70
2022/06/29 04:03:25;;;;;;;3.00;2.30;;;23.20;97.20;;;;;;4994769;28;20026;-69
2022/06/29 04:05:51;;;;;;;2.40;2.20;;;23.20;97.50;;;;;;4993449;28;20539;-67
2022/06/29 04:08:17;;;;;;;2.60;2.40;;;23.20;97.60;;;;;;4993381;28;20457;-67
2022/06/29 04:10:42;;;;;;;2.65;2.40;;;23.20;97.70;;;;;;4993673;28;20057;-71
2022/06/29 04:13:08;;;;;;;2.33;2.13;;;23.30;97.80;;;;;;4994338;28;20129;-69
2022/06/29 04:15:35;;;;;;;2.85;2.03;;;23.40;97.60;;;;;;4994333;28;20480;-71
2022/06/29 04:18:01;;;;;;;2.55;2.15;;;23.40;97.50;;;;;;4994563;28;20019;-68
2022/06/29 04:23:11;;;;;;;2.67;2.35;;;23.70;97.20;;;;;;4994677;28;20038;-69
2022/06/29 04:25:36;;;;;;;2.50;2.22;;;23.70;97.00;;;;;;4994388;28;20034;-69
2022/06/29 04:28:02;;;;;;;1.90;1.80;;;23.80;96.90;;;;;;4993143;28;20085;-70
2022/06/29 04:30:28;;;;;;;2.60;2.40;;;23.80;96.90;;;;;;4994107;28;20050;-69
2022/06/29 04:32:54;;;;;;;2.45;2.15;;;23.80;96.60;;;;;;4994330;28;20473;-67
2022/06/29 04:35:21;;;;;;;3.33;2.42;;;23.90;96.70;;;;;;4994310;28;20050;-69
2022/06/29 04:37:47;;;;;;;4.55;2.50;;;23.90;96.70;;;;;;4994396;28;20061;-67
2022/06/29 04:40:13;;;;;;;2.90;2.70;;;24.00;97.00;;;;;;4994408;28;20054;-69
2022/06/29 04:42:38;;;;;;;3.05;2.85;;;24.10;97.10;;;;;;4994169;28;20022;-67
2022/06/29 04:45:05;;;;;;;3.35;3.08;;;24.10;97.10;;;;;;4993642;28;20041;-68
2022/06/29 04:47:30;;;;;;;3.88;3.47;;;24.20;96.80;;;;;;4994119;28;20029;-69
2022/06/29 04:49:56;;;;;;;3.45;3.15;;;24.20;96.80;;;;;;4994282;28;20465;-70
2022/06/29 04:52:24;;;;;;;3.50;3.20;;;24.30;96.80;;;;;;4992139;28;20031;-71
2022/06/29 04:54:50;;;;;;;3.97;3.67;;;24.30;96.70;;;;;;4989731;28;20038;-71
2022/06/29 04:57:16;;;;;;;6.03;4.00;;;24.30;97.00;;;;;;4992297;28;20536;-73
2022/06/29 04:59:41;;;;;;;4.18;3.60;;;24.30;97.00;;;;;;4991787;28;20026;-72
2022/06/29 05:02:07;;;;;;;6.25;4.00;;;24.30;97.20;;;;;;4991805;28;20508;-71
2022/06/29 05:04:33;;;;;;;4.18;3.72;;;24.30;97.20;;;;;;4988973;28;20451;-71
2022/06/29 05:07:02;;;;;;;4.00;3.60;;;24.30;97.40;;;;;;4980153;28;20451;-71
2022/06/29 05:09:28;;;;;;;3.60;3.30;;;24.40;97.30;;;;;;4986689;28;20081;-70
2022/06/29 05:11:53;;;;;;;7.22;3.97;;;24.50;97.10;;;;;;4972136;28;20027;-73
2022/06/29 05:14:19;;;;;;;3.80;3.30;;;24.70;97.20;;;;;;4972986;28;20268;-73
2022/06/29 05:16:45;;;;;;;4.00;3.65;;;24.70;97.20;;;;;;4974423;28;20458;-73
2022/06/29 05:19:10;;;;;;;4.10;3.60;;;24.90;97.10;;;;;;4974357;28;20019;-70
2022/06/29 05:21:36;;;;;;;4.95;4.13;;;25.00;96.80;;;;;;4974368;28;20050;-69
2022/06/29 05:24:01;;;;;;;6.15;4.20;;;25.00;96.90;;;;;;4974317;28;20456;-70
2022/06/29 05:26:27;;;;;;;5.72;4.63;;;25.20;96.70;;;;;;4973191;28;20054;-69
2022/06/29 05:28:53;;;;;;;6.50;4.65;;;25.30;96.80;;;;;;4972832;28;20169;-72
2022/06/29 05:31:19;;;;;;;4.15;3.85;;;25.50;96.80;;;;;;4972418;28;20046;-69
2022/06/29 05:33:44;;;;;;;4.57;4.00;;;25.60;97.40;;;;;;4973450;28;20125;-70
2022/06/29 05:36:10;;;;;;;5.60;4.47;;;25.70;97.50;;;;;;4988204;28;20026;-71
2022/06/29 05:38:37;;;;;;;7.15;4.97;;;25.80;97.00;;;;;;4992000;28;20034;-70
2022/06/29 05:41:04;;;;;;;4.68;4.25;;;25.80;97.60;;;;;;4992280;28;20465;-72
2022/06/29 05:43:30;;;;;;;6.47;3.85;;;25.90;97.60;;;;;;4992499;28;20563;-71
2022/06/29 05:45:57;;;;;;;7.05;3.50;;;26.00;98.20;;;;;;4993225;28;21147;-70
2022/06/29 05:48:23;;;;;;;4.25;3.40;;;26.10;98.10;;;;;;4993168;28;20022;-69
2022/06/29 05:50:49;;;;;;;4.07;2.90;;;26.10;96.80;;;;;;4992674;28;20138;-74
2022/06/29 05:53:16;;;;;;;3.88;3.20;;;26.30;96.80;;;;;;4982350;28;20509;-72
2022/06/29 05:55:42;;;;;;;2.80;2.60;;;26.40;96.50;;;;;;4985031;28;20031;-69
2022/06/29 05:58:07;;;;;;;5.00;2.90;;;26.50;96.30;;;;;;4989012;28;20046;-71
2022/06/29 06:00:33;;;;;;;4.93;2.53;;;26.60;95.90;;;;;;4993887;28;20034;-71
2022/06/29 06:02:59;;;;;;;6.38;2.72;;;26.70;94.60;;;;;;4990252;28;20026;-72
2022/06/29 06:05:24;;;;;;;5.88;3.08;;;26.80;95.40;;;;;;4995717;28;20022;-71
2022/06/29 06:07:51;;;;;;;4.68;2.65;;;26.90;93.80;;;;;;4996787;28;20026;-72
2022/06/29 06:10:17;;;;;;;7.22;2.78;;;27.10;92.70;;;;;;4996936;28;20099;-74
2022/06/29 06:12:42;;;;;;;5.50;2.75;;;27.30;93.00;;;;;;4996664;28;20480;-73
2022/06/29 06:15:08;;;;;;;2.50;2.30;;;27.50;93.20;;;;;;4996928;28;20022;-70
2022/06/29 06:17:34;;;;;;;2.60;2.40;;;27.60;92.40;;;;;;4994615;28;20026;-73
2022/06/29 06:20:01;;;;;;;3.97;2.10;;;27.90;91.70;;;;;;4995869;28;20526;-71
2022/06/29 06:22:27;;;;;;;6.07;2.58;;;28.00;92.40;;;;;;4996676;28;20022;-71
2022/06/29 06:24:53;;;;;;;3.53;2.42;;;28.20;91.90;;;;;;4995168;28;20449;-73
2022/06/29 06:27:18;;;;;;;2.67;2.20;;;28.30;91.10;;;;;;4994412;28;20022;-73
2022/06/29 06:29:45;;;;;;;4.35;2.20;;;28.40;90.40;;;;;;4991961;28;20030;-71
2022/06/29 06:32:12;;;;;;;3.33;3.13;;;28.60;90.50;;;;;;4978794;28;20109;-75
2022/06/29 06:34:37;;;;;;;3.13;2.25;;;28.80;90.20;;;;;;4991732;28;20041;-75
2022/06/29 06:37:04;;;;;;;2.10;1.90;;;29.00;88.00;;;;;;4986843;28;20023;-71
2022/06/29 06:39:30;;;;;;;4.20;2.20;;;29.20;86.90;;;;;;4991029;28;20101;-73
2022/06/29 06:41:55;;;;;;;5.32;2.60;;;29.30;84.90;;;;;;4982274;28;20145;-74
2022/06/29 06:44:21;;;;;;;1.95;1.85;;;29.50;84.60;;;;;;4977617;28;20049;-72
2022/06/29 06:46:48;;;;;;;2.05;1.83;;;29.50;81.60;;;;;;4981878;28;20089;-72
2022/06/29 06:49:15;;;;;;;2.58;1.90;;;29.60;83.20;;;;;;4989418;28;20050;-72
2022/06/29 06:51:41;;;;;;;3.05;2.03;;;29.70;86.60;;;;;;4986946;28;20454;-71
2022/06/29 06:54:06;;;;;;;3.70;2.10;;;29.80;85.90;;;;;;4991399;28;20138;-70
2022/06/29 06:56:32;;;;;;;2.08;1.95;;;29.80;82.10;;;;;;4994013;28;20033;-75
2022/06/29 06:58:58;;;;;;;2.45;1.88;;;30.10;82.40;;;;;;4995676;28;20026;-74
2022/06/29 07:01:24;;;;;;;2.75;2.13;;;30.20;80.10;;;;;;4995973;28;20058;-74
2022/06/29 07:03:50;;;;;;;2.08;1.90;;;30.40;76.50;;;;;;4994207;28;20056;-73
2022/06/29 07:06:16;;;;;;;2.00;1.90;;;30.50;77.10;;;;;;4995627;28;20053;-69
2022/06/29 07:08:42;;;;;;;2.13;1.88;;;30.70;76.50;;;;;;4994730;28;20453;-71
2022/06/29 07:11:08;;;;;;;1.80;1.70;;;30.80;72.30;;;;;;4981854;28;20054;-74
2022/06/29 07:13:34;;;;;;;1.50;1.40;;;30.90;70.30;;;;;;4981383;28;20050;-71
2022/06/29 07:16:03;;;;;;;1.35;1.25;;;31.10;72.00;;;;;;4993507;28;20027;-70
2022/06/29 07:18:29;;;;;;;4.35;2.00;;;31.20;69.80;;;;;;4992047;28;20026;-74
2022/06/29 07:20:55;;;;;;;2.88;1.80;;;31.40;70.40;;;;;;4992140;28;20026;-71
2022/06/29 07:23:21;;;;;;;2.38;1.60;;;31.40;70.40;;;;;;4991597;28;20022;-70
2022/06/29 07:25:47;;;;;;;2.30;1.90;;;31.50;68.60;;;;;;4991910;28;20476;-73
2022/06/29 07:28:13;;;;;;;2.10;1.90;;;31.60;63.20;;;;;;4991449;28;20323;-70
2022/06/29 07:30:39;;;;;;;2.55;1.75;;;31.50;64.80;;;;;;4991575;28;20392;-73
2022/06/29 07:33:05;;;;;;;1.80;1.70;;;31.60;65.00;;;;;;4992928;28;20033;-72
2022/06/29 07:35:31;;;;;;;2.72;1.90;;;31.80;63.50;;;;;;4993663;28;20026;-73
2022/06/29 07:37:56;;;;;;;1.90;1.80;;;32.00;64.20;;;;;;4993164;28;20042;-74
2022/06/29 07:40:22;;;;;;;1.88;1.73;;;32.20;68.80;;;;;;4994923;28;20461;-67
2022/06/29 07:42:48;;;;;;;1.88;1.65;;;32.40;63.90;;;;;;4995015;28;20033;-70
2022/06/29 07:45:15;;;;;;;1.65;1.55;;;32.50;61.70;;;;;;4987830;28;20034;-71
2022/06/29 07:47:40;;;;;;;1.70;1.60;;;32.60;63.90;;;;;;4993104;28;20476;-70
2022/06/29 07:50:08;;;;;;;2.30;1.67;;;33.30;64.40;;;;;;4994427;28;20073;-70
2022/06/29 07:52:34;;;;;;;1.50;1.40;;;35.10;59.20;;;;;;4991623;28;20019;-68
2022/06/29 07:55:00;;;;;;;1.63;1.52;;;37.00;57.00;;;;;;4981755;28;20492;-70
2022/06/29 07:57:26;;;;;;;3.72;1.88;;;38.40;52.20;;;;;;4984338;28;20089;-68
2022/06/29 07:59:52;;;;;;;1.63;1.52;;;39.00;50.30;;;;;;4990273;28;20388;-71
2022/06/29 08:02:17;;;;;;;1.55;1.35;;;39.40;47.80;;;;;;4989785;28;20369;-69
2022/06/29 08:04:43;;;;;;;1.70;1.60;;;40.10;47.40;;;;;;4991575;28;20058;-70
2022/06/29 08:07:10;;;;;;;2.15;1.70;;;40.60;45.60;;;;;;4992812;28;20046;-71
2022/06/29 08:09:36;;;;;;;2.13;1.50;;;40.70;44.10;;;;;;4990509;28;20385;-72
2022/06/29 08:12:02;;;;;;;2.45;1.60;;;40.90;44.50;;;;;;4981547;28;20067;-68
2022/06/29 08:14:28;;;;;;;1.40;1.30;;;41.50;44.60;;;;;;4981750;28;20266;-65
2022/06/29 08:16:54;;;;;;;3.90;1.75;;;41.80;43.00;;;;;;4981505;28;20033;-68
2022/06/29 08:19:19;;;;;;;1.95;1.70;;;41.90;43.40;;;;;;4980966;28;20101;-67
2022/06/29 08:21:45;;;;;;;1.60;1.50;;;42.30;42.20;;;;;;4980280;28;20030;-66
2022/06/29 08:24:11;;;;;;;2.15;1.70;;;42.20;41.80;;;;;;4981641;28;21140;-67
2022/06/29 08:26:36;;;;;;;1.83;1.73;;;42.10;41.60;;;;;;4982947;28;20481;-65
2022/06/29 08:29:04;;;;;;;2.78;1.73;;;42.40;41.60;;;;;;4978793;28;20033;-65
2022/06/29 08:31:29;;;;;;;2.33;1.48;;;41.90;40.20;;;;;;4980916;28;20027;-68
2022/06/29 08:33:55;;;;;;;3.70;1.88;;;41.60;40.70;;;;;;4984671;28;20037;-66
2022/06/29 08:36:22;;;;;;;1.90;1.70;;;41.30;40.70;;;;;;4991835;28;20045;-69
2022/06/29 08:38:47;;;;;;;2.17;1.98;;;41.60;41.10;;;;;;4991392;28;20034;-69
2022/06/29 08:41:15;;;;;;;3.15;1.67;;;41.60;40.90;;;;;;4992029;28;20018;-67
2022/06/29 08:43:42;;;;;;;1.60;1.50;;;41.40;41.50;;;;;;4993439;28;20041;-65
2022/06/29 08:46:12;;;;;;;2.05;1.77;;;41.90;42.70;;;;;;4993416;28;20530;-67
2022/06/29 08:48:38;;;;;;;1.80;1.70;;;42.20;41.00;;;;;;4993843;28;20422;-67
2022/06/29 08:51:05;;;;;;;2.40;1.73;;;42.40;40.40;;;;;;4993722;28;20054;-68
2022/06/29 08:53:32;;;;;;;1.50;1.40;;;42.00;39.20;;;;;;4992335;28;20022;-65
2022/06/29 08:56:00;;;;;;;1.90;1.70;;;41.60;40.40;;;;;;4987349;28;20031;-65
2022/06/29 08:58:27;;;;;;;2.55;1.92;;;41.70;41.40;;;;;;4977960;28;20382;-67
2022/06/29 09:00:53;;;;;;;1.90;1.77;;;41.90;40.50;;;;;;4972261;28;20150;-66
2022/06/29 09:03:21;;;;;;;1.77;1.67;;;42.00;40.50;;;;;;4974403;28;20440;-64
2022/06/29 09:05:54;;;;;;;3.20;1.80;;;42.30;40.60;;;;;;4982233;28;20037;-64
2022/06/29 09:08:21;;;;;;;2.45;2.25;;;42.30;39.80;;;;;;4984283;28;20024;-66
2022/06/29 09:10:47;;;;;;;3.10;2.80;;;42.20;40.40;;;;;;4973491;28;20023;-68
2022/06/29 09:13:19;;;;;;;2.10;2.00;;;42.20;40.90;;;;;;4972465;28;20043;-67
2022/06/29 09:15:45;;;;;;;3.25;1.70;;;42.30;40.00;;;;;;4970833;28;20493;-69
2022/06/29 09:18:31;;;;;;;1.88;1.58;;;42.70;40.80;;;;;;4971647;28;20070;-69
2022/06/29 09:21:05;;;;;;;1.70;1.58;;;43.00;39.90;;;;;;4971857;28;20019;-68
2022/06/29 09:23:32;;;;;;;1.85;1.60;;;43.20;39.80;;;;;;4971518;28;20049;-69
2022/06/29 09:25:59;;;;;;;1.63;1.52;;;43.50;40.00;;;;;;4973499;28;20030;-68
2022/06/29 09:28:26;;;;;;;2.00;1.80;;;43.80;40.20;;;;;;4972242;28;20033;-68
2022/06/29 09:30:53;;;;;;;2.65;1.45;;;43.50;39.30;;;;;;4973787;28;20094;-68
2022/06/29 09:33:28;;;;;;;1.23;1.15;;;43.20;40.30;;;;;;4974350;28;20022;-68
2022/06/29 09:36:06;;;;;;;3.70;2.05;;;43.30;39.60;;;;;;4974708;28;20030;-67
2022/06/29 09:38:32;;;;;;;1.30;1.20;;;43.50;38.40;;;;;;4976002;28;20034;-67
2022/06/29 09:41:00;;;;;;;1.50;1.40;;;43.70;39.10;;;;;;4975574;28;20027;-67
2022/06/29 09:43:27;;;;;;;2.92;1.50;;;43.30;39.00;;;;;;4976395;28;20481;-67
2022/06/29 09:45:54;;;;;;;1.60;1.50;;;43.20;39.50;;;;;;4977292;28;20384;-67
2022/06/29 09:48:23;;;;;;;1.70;1.60;;;43.10;38.20;;;;;;4977306;28;20110;-67
2022/06/29 09:50:54;;;;;;;1.80;1.70;;;43.00;39.00;;;;;;4977193;28;20145;-68
2022/06/29 09:53:25;;;;;;;3.40;1.42;;;43.00;39.00;;;;;;4982851;28;20023;-68
2022/06/29 09:55:55;;;;;;;1.85;1.67;;;43.40;39.80;;;;;;4993581;28;20034;-68
2022/06/29 09:58:32;;;;;;;10.38;3.20;;;43.70;39.30;;;;;;4988238;28;20027;-67
2022/06/29 10:03:48;;;;;;;2.42;2.05;;;43.10;40.20;;;;;;4996419;28;20037;-68
2022/06/29 10:06:16;;;;;;;1.73;1.63;;;43.60;38.70;;;;;;4996975;28;20097;-69
2022/06/29 10:08:43;;;;;;;1.77;1.67;;;43.50;38.90;;;;;;4995018;28;20042;-69
2022/06/29 10:14:37;;;;;;;2.13;2.03;;;43.70;38.30;;;;;;4994736;28;20049;-69
2022/06/29 10:17:31;;;;;;;1.70;1.60;;;43.30;38.10;;;;;;4995054;28;20749;-67
2022/06/29 10:20:25;;;;;;;1.58;1.48;;;43.60;39.30;;;;;;4996554;28;20105;-69
2022/06/29 10:22:51;;;;;;;2.17;1.90;;;43.90;37.50;;;;;;4994579;28;20370;-69
2022/06/29 10:25:17;;;;;;;3.13;1.95;;;43.70;37.40;;;;;;4994884;28;20026;-68
2022/06/29 10:28:13;;;;;;;1.65;1.40;;;43.00;38.70;;;;;;4994652;28;20384;-69
2022/06/29 10:30:39;;;;;;;1.60;1.50;;;43.30;39.10;;;;;;4993966;28;20030;-67
2022/06/29 10:33:37;;;;;;;3.13;2.30;;;43.50;37.70;;;;;;4994204;28;20093;-70
2022/06/29 10:36:06;;;;;;;1.70;1.60;;;42.60;37.80;;;;;;4992832;28;20038;-68
2022/06/29 10:38:55;;;;;;;3.28;1.90;;;42.50;38.70;;;;;;4994696;28;20499;-69
2022/06/29 10:44:06;;;;;;;1.70;1.60;;;42.90;37.60;;;;;;4995998;28;20037;-69
2022/06/29 10:46:56;;;;;;;1.77;1.50;;;42.80;37.10;;;;;;4996021;28;20130;-68
2022/06/29 10:49:22;;;;;;;1.85;1.75;;;43.10;38.70;;;;;;4995573;28;20026;-67
2022/06/29 10:51:51;;;;;;;2.13;1.95;;;43.10;36.50;;;;;;4993956;28;20066;-67
2022/06/29 10:54:23;;;;;;;2.42;1.92;;;42.90;38.20;;;;;;4995392;28;20019;-68
2022/06/29 10:56:49;;;;;;;2.03;1.73;;;42.80;36.90;;;;;;4995918;28;20495;-69
2022/06/29 10:59:35;;;;;;;1.90;1.70;;;42.80;37.40;;;;;;4995609;28;20032;-67
2022/06/29 11:02:12;;;;;;;2.15;1.60;;;43.00;36.20;;;;;;4978495;28;20033;-68
2022/06/29 11:04:38;;;;;;;2.38;1.90;;;42.80;35.90;;;;;;4989657;28;20069;-68
2022/06/29 11:12:49;;;;;;;2.13;1.92;;;43.10;35.90;;;;;;4975546;28;20065;-72
2022/06/29 11:18:08;;;;;;;;;;;43.20;35.80;;;;;;4976628;28;20031;-72
2022/06/29 11:20:33;;;;;;;2.35;1.73;;;42.80;34.90;;;;;;4975451;28;19972;-72
2022/06/29 11:22:59;;;;;;;1.67;1.58;;;42.40;35.30;;;;;;4975808;28;20027;-72
2022/06/29 11:25:46;;;;;;;3.28;1.80;;;42.00;36.20;;;;;;4975463;28;20070;-72
2022/06/29 11:28:33;;;;;;;2.30;1.67;;;42.20;36.30;;;;;;4974280;28;20029;-72
2022/06/29 11:31:04;;;;;;;4.28;1.80;;;42.00;37.20;;;;;;4974489;28;20030;-73
2022/06/29 11:33:31;;;;;;;;;;;42.40;35.90;;;;;;4975657;28;20086;-72
2022/06/29 11:36:02;;;;;;;3.47;1.85;;;42.50;35.10;;;;;;4974187;28;19908;-72
2022/06/29 11:38:28;;;;;;;2.17;1.60;;;42.50;36.00;;;;;;4974419;28;20023;-72
2022/06/29 11:40:54;;;;;;;2.25;1.77;;;42.70;36.90;;;;;;4974417;28;20030;-72
2022/06/29 11:43:21;;;;;;;2.75;1.65;;;43.10;35.40;;;;;;4975624;28;20027;-72
2022/06/29 11:45:56;;;;;;;2.38;2.17;;;43.10;35.40;;;;;;4975460;28;20025;-72
2022/06/29 11:48:22;;;;;;;2.60;2.10;;;43.10;35.00;;;;;;4975638;28;20030;-72
2022/06/29 11:50:53;;;;;;;1.90;1.77;;;43.10;36.40;;;;;;4972788;28;20057;-72
2022/06/29 11:53:44;;;;;;;2.30;2.10;;;43.20;35.20;;;;;;4971720;28;20043;-72
2022/06/29 11:56:16;;;;;;;2.10;1.60;;;43.30;35.80;;;;;;4973935;28;20026;-72
2022/06/29 11:58:49;;;;;;;2.00;1.80;;;43.50;35.90;;;;;;4974262;28;20026;-72
2022/06/29 12:01:17;;;;;;;1.90;1.80;;;43.50;35.20;;;;;;4973844;28;20034;-72
2022/06/29 12:03:53;;;;;;;2.08;1.88;;;43.70;35.40;;;;;;4974029;28;20054;-72
2022/06/29 12:06:22;;;;;;;2.30;2.08;;;43.80;36.50;;;;;;4975019;28;20477;-72
2022/06/29 12:08:49;;;;;;;4.43;1.70;;;43.70;35.40;;;;;;4975239;28;20049;-72
2022/06/29 12:11:15;;;;;;;3.70;1.85;;;43.70;33.80;;;;;;4975079;28;20019;-72
2022/06/29 12:13:42;;;;;;;1.90;1.80;;;43.30;33.80;;;;;;4974791;28;20043;-72
2022/06/29 12:16:11;;;;;;;2.42;1.80;;;43.20;35.60;;;;;;4975147;28;20027;-72
2022/06/29 12:18:37;;;;;;;5.03;2.03;;;43.30;34.10;;;;;;4975338;28;20022;-72
2022/06/29 12:21:03;;;;;;;2.35;1.80;;;42.60;34.00;;;;;;4975007;28;20023;-72
2022/06/29 12:23:29;;;;;;;1.83;1.70;;;42.50;34.80;;;;;;4974961;28;20121;-72
2022/06/29 12:25:55;;;;;;;2.38;1.50;;;42.70;34.40;;;;;;4975004;28;20051;-72
2022/06/29 12:28:21;;;;;;;1.67;1.40;;;42.80;34.40;;;;;;4974033;28;20038;-72
2022/06/29 12:30:47;;;;;;;2.22;1.60;;;42.90;35.10;;;;;;4973470;28;20050;-72
2022/06/29 12:33:13;;;;;;;2.15;1.70;;;42.80;34.50;;;;;;4971636;28;20019;-72
2022/06/29 12:35:39;;;;;;;1.48;1.38;;;42.30;34.30;;;;;;4972827;28;20469;-73
2022/06/29 12:38:05;;;;;;;1.75;1.63;;;42.40;35.70;;;;;;4972944;28;20030;-72
2022/06/29 12:40:31;;;;;;;2.88;1.75;;;42.40;34.10;;;;;;4973827;28;20023;-74
2022/06/29 12:42:57;;;;;;;2.35;1.60;;;42.50;34.00;;;;;;4988782;28;20031;-72
2022/06/29 12:45:24;;;;;;;3.70;1.48;;;42.60;33.80;;;;;;4972689;28;20054;-72
2022/06/29 12:47:50;;;;;;;1.40;1.30;;;42.70;34.10;;;;;;4973387;28;20027;-72
2022/06/29 12:50:17;;;;;;;2.13;1.40;;;42.70;34.50;;;;;;4973314;28;20034;-72
2022/06/29 12:52:46;;;;;;;2.03;1.40;;;42.70;34.70;;;;;;4974782;28;20081;-72
2022/06/29 12:55:16;;;;;;;1.50;1.40;;;42.70;33.70;;;;;;4973328;28;20026;-72
2022/06/29 12:57:42;;;;;;;1.75;1.65;;;42.80;33.50;;;;;;4974294;28;20022;-72
2022/06/29 13:00:09;;;;;;;1.83;1.33;;;42.90;32.80;;;;;;4989952;28;20058;-72
2022/06/29 13:02:35;;;;;;;2.70;2.08;;;43.00;33.80;;;;;;4989802;28;20019;-72
2022/06/29 13:05:04;;;;;;;3.55;1.77;;;43.20;34.70;;;;;;4990934;28;20366;-72
2022/06/29 13:07:30;;;;;;;2.05;1.95;;;43.40;35.20;;;;;;4979705;28;20026;-72
2022/06/29 13:09:57;;;;;;;2.00;1.50;;;43.60;34.50;;;;;;4980124;28;20077;-72
2022/06/29 13:12:24;;;;;;;1.67;1.58;;;43.80;35.70;;;;;;4979229;28;20051;-72
2022/06/29 13:14:50;;;;;;;2.17;1.50;;;43.70;36.60;;;;;;4979358;28;20507;-72